createdAt,value
2023-02-05T00:00:19.250Z,12.13
2023-02-05T00:03:06.830Z,13.87
2023-02-05T00:05:34.668Z,13.87
2023-02-05T00:08:02.662Z,14.20
2023-02-05T00:10:29.983Z,16.13
2023-02-05T00:12:57.630Z,17.37
2023-02-05T00:15:25.018Z,15.00
2023-02-05T00:17:52.599Z,13.63
2023-02-05T00:20:19.962Z,14.33
2023-02-05T00:22:47.540Z,13.70
2023-02-05T00:25:14.880Z,15.03
2023-02-05T00:27:42.514Z,18.50
2023-02-05T00:30:10.685Z,18.13
2023-02-05T00:32:38.277Z,13.53
2023-02-05T00:35:06.055Z,12.73
2023-02-05T00:37:33.669Z,12.50
2023-02-05T00:40:01.052Z,13.57
2023-02-05T00:42:28.693Z,12.47
2023-02-05T00:44:56.046Z,12.83
2023-02-05T00:47:23.739Z,14.37
2023-02-05T00:49:51.024Z,14.30
2023-02-05T00:52:18.879Z,14.60
2023-02-05T00:54:46.318Z,14.00
2023-02-05T00:57:13.923Z,11.20
2023-02-05T00:59:41.181Z,11.10
2023-02-05T01:02:08.763Z,11.83
2023-02-05T01:04:36.024Z,9.83
2023-02-05T01:07:03.620Z,10.93
2023-02-05T01:09:30.966Z,11.17
2023-02-05T01:12:00.047Z,11.50
2023-02-05T01:14:27.331Z,9.23
2023-02-05T01:16:54.985Z,8.23
2023-02-05T01:19:22.256Z,8.33
2023-02-05T01:21:49.862Z,8.33
2023-02-05T01:24:17.102Z,8.87
2023-02-05T01:26:44.876Z,7.90
2023-02-05T01:29:12.163Z,8.13
2023-02-05T01:31:39.833Z,8.23
2023-02-05T01:34:07.149Z,8.17
2023-02-05T01:36:34.834Z,9.47
2023-02-05T01:39:02.147Z,8.50
2023-02-05T01:41:29.920Z,8.47
2023-02-05T01:44:18.838Z,7.23
2023-02-05T01:46:48.437Z,8.07
2023-02-05T01:49:35.481Z,8.20
2023-02-05T01:52:16.054Z,8.10
2023-02-05T01:54:49.250Z,7.60
2023-02-05T01:57:26.144Z,7.37
2023-02-05T01:59:53.537Z,7.37
2023-02-05T02:02:21.157Z,7.50
2023-02-05T02:04:55.294Z,8.47
2023-02-05T02:07:25.034Z,8.10
2023-02-05T02:09:54.481Z,7.67
2023-02-05T02:12:28.381Z,7.87
2023-02-05T02:15:03.622Z,7.60
2023-02-05T02:17:39.285Z,7.70
2023-02-05T02:20:22.513Z,7.93
2023-02-05T02:22:56.230Z,8.00
2023-02-05T02:26:01.298Z,7.90
2023-02-05T02:28:50.669Z,7.63
2023-02-05T02:31:40.145Z,7.60
2023-02-05T02:34:45.123Z,7.40
2023-02-05T02:37:44.130Z,6.50
2023-02-05T02:40:52.325Z,5.90
2023-02-05T02:43:27.639Z,6.70
2023-02-05T02:46:17.198Z,7.63
2023-02-05T02:48:48.032Z,6.97
2023-02-05T02:51:20.599Z,7.23
2023-02-05T02:53:54.471Z,6.63
2023-02-05T02:56:27.842Z,5.97
2023-02-05T02:59:03.611Z,6.97
2023-02-05T03:01:35.131Z,8.07
2023-02-05T03:04:17.671Z,8.73
2023-02-05T03:06:51.968Z,8.60
2023-02-05T03:09:29.274Z,8.50
2023-02-05T03:11:56.851Z,8.03
2023-02-05T03:14:24.397Z,8.40
2023-02-05T03:16:53.788Z,7.50
2023-02-05T03:19:21.243Z,8.47
2023-02-05T03:21:56.667Z,8.83
2023-02-05T03:24:24.966Z,8.40
2023-02-05T03:26:52.672Z,11.33
2023-02-05T03:29:33.047Z,12.50
2023-02-05T03:32:43.732Z,10.90
2023-02-05T03:35:24.791Z,11.90
2023-02-05T03:38:46.795Z,10.50
2023-02-05T03:41:53.428Z,8.97
2023-02-05T03:44:46.589Z,9.83
2023-02-05T03:47:58.238Z,8.90
2023-02-05T03:50:50.608Z,8.43
2023-02-05T03:53:27.956Z,7.00
2023-02-05T03:56:13.843Z,7.17
2023-02-05T03:58:48.216Z,6.80
2023-02-05T04:01:17.163Z,7.33
2023-02-05T04:03:44.989Z,7.67
2023-02-05T04:06:12.947Z,7.57
2023-02-05T04:08:40.483Z,9.03
2023-02-05T04:11:08.104Z,7.17
2023-02-05T04:13:35.406Z,6.77
2023-02-05T04:16:03.015Z,7.50
2023-02-05T04:18:30.399Z,6.63
2023-02-05T04:20:59.174Z,7.70
2023-02-05T04:23:26.585Z,7.33
2023-02-05T04:25:55.280Z,6.73
2023-02-05T04:28:22.699Z,7.03
2023-02-05T04:30:50.351Z,8.30
2023-02-05T04:33:18.706Z,8.07
2023-02-05T04:35:46.518Z,8.93
2023-02-05T04:38:13.779Z,10.00
2023-02-05T04:40:41.418Z,10.90
2023-02-05T04:43:08.679Z,12.57
2023-02-05T04:45:36.662Z,12.03
2023-02-05T04:48:06.721Z,11.33
2023-02-05T04:50:34.836Z,13.67
2023-02-05T04:53:03.322Z,15.47
2023-02-05T04:55:32.253Z,13.90
2023-02-05T04:57:59.734Z,14.53
2023-02-05T05:00:27.737Z,13.77
2023-02-05T05:02:55.084Z,13.53
2023-02-05T05:05:22.926Z,13.50
2023-02-05T05:07:50.227Z,12.33
2023-02-05T05:10:17.890Z,13.57
2023-02-05T05:12:45.217Z,12.47
2023-02-05T05:15:12.923Z,12.20
2023-02-05T05:17:40.326Z,10.53
2023-02-05T05:20:08.654Z,12.63
2023-02-05T05:22:35.940Z,12.63
2023-02-05T05:25:03.549Z,12.33
2023-02-05T05:27:30.848Z,14.17
2023-02-05T05:29:58.474Z,16.53
2023-02-05T05:32:25.792Z,15.87
2023-02-05T05:34:53.400Z,17.43
2023-02-05T05:37:20.657Z,18.43
2023-02-05T05:40:06.563Z,16.60
2023-02-05T05:42:52.465Z,15.27
2023-02-05T05:45:20.103Z,14.43
2023-02-05T05:47:47.441Z,14.40
2023-02-05T05:50:15.431Z,13.60
2023-02-05T05:52:42.765Z,13.73
2023-02-05T05:55:10.541Z,14.33
2023-02-05T05:57:37.892Z,13.17
2023-02-05T06:00:06.691Z,13.67
2023-02-05T06:02:39.108Z,12.37
2023-02-05T06:05:07.336Z,14.60
2023-02-05T06:07:34.642Z,21.00
2023-02-05T06:10:02.368Z,39.37
2023-02-05T06:12:29.637Z,47.77
2023-02-05T06:14:57.238Z,38.30
2023-02-05T06:17:24.505Z,30.90
2023-02-05T06:19:52.083Z,26.43
2023-02-05T06:22:19.555Z,24.67
2023-02-05T06:24:47.205Z,24.63
2023-02-05T06:27:14.452Z,23.43
2023-02-05T06:29:42.005Z,22.93
2023-02-05T06:32:09.297Z,20.00
2023-02-05T06:34:37.011Z,19.00
2023-02-05T06:37:04.381Z,20.17
2023-02-05T06:39:32.046Z,19.37
2023-02-05T06:41:59.358Z,17.87
2023-02-05T06:44:27.062Z,16.63
2023-02-05T06:46:54.343Z,17.33
2023-02-05T06:49:22.118Z,17.83
2023-02-05T06:51:49.444Z,19.53
2023-02-05T06:54:17.390Z,21.33
2023-02-05T06:56:44.941Z,19.43
2023-02-05T06:59:12.519Z,21.63
2023-02-05T07:01:39.950Z,28.90
2023-02-05T07:04:07.655Z,25.73
2023-02-05T07:06:35.037Z,23.80
2023-02-05T07:09:02.810Z,23.57
2023-02-05T07:11:30.311Z,24.80
2023-02-05T07:14:01.155Z,31.73
2023-02-05T07:16:30.473Z,27.33
2023-02-05T07:18:59.025Z,25.40
2023-02-05T07:21:26.305Z,24.57
2023-02-05T07:23:54.048Z,24.07
2023-02-05T07:26:21.461Z,22.10
2023-02-05T07:28:49.126Z,20.33
2023-02-05T07:31:19.649Z,21.20
2023-02-05T07:33:48.550Z,19.07
2023-02-05T07:36:18.886Z,19.37
2023-02-05T07:38:48.079Z,19.90
2023-02-05T07:41:17.500Z,17.90
2023-02-05T07:43:45.441Z,16.00
2023-02-05T07:46:15.201Z,19.47
2023-02-05T07:48:43.265Z,18.73
2023-02-05T07:51:18.336Z,18.67
2023-02-05T07:53:46.627Z,18.50
2023-02-05T07:56:15.666Z,16.30
2023-02-05T07:58:44.087Z,16.17
2023-02-05T08:01:11.712Z,15.53
2023-02-05T08:03:39.541Z,17.87
2023-02-05T08:06:11.688Z,15.10
2023-02-05T08:08:39.254Z,14.80
2023-02-05T08:11:08.002Z,18.93
2023-02-05T08:13:35.555Z,16.80
2023-02-05T08:16:09.470Z,16.03
2023-02-05T08:18:37.196Z,14.23
2023-02-05T08:21:05.177Z,12.93
2023-02-05T08:23:33.394Z,14.20
2023-02-05T08:26:01.217Z,14.07
2023-02-05T08:28:29.349Z,14.27
2023-02-05T08:30:57.042Z,14.23
2023-02-05T08:33:25.197Z,15.13
2023-02-05T08:35:52.639Z,14.53
2023-02-05T08:38:20.316Z,17.47
2023-02-05T08:40:47.593Z,10.98
2023-02-05T08:43:15.266Z,9.87
2023-02-05T08:45:48.140Z,12.83
2023-02-05T08:48:15.957Z,16.07
2023-02-05T08:50:47.385Z,15.10
2023-02-05T08:53:15.029Z,11.90
2023-02-05T08:55:42.790Z,12.87
2023-02-05T08:58:10.452Z,12.93
2023-02-05T09:00:40.164Z,10.27
2023-02-05T09:03:08.886Z,8.83
2023-02-05T09:05:36.388Z,10.30
2023-02-05T09:08:04.119Z,9.57
2023-02-05T09:10:31.696Z,9.87
2023-02-05T09:12:59.274Z,11.73
2023-02-05T09:15:26.823Z,10.37
2023-02-05T09:17:54.422Z,14.33
2023-02-05T09:20:21.738Z,13.97
2023-02-05T09:22:50.490Z,15.37
2023-02-05T09:25:17.866Z,16.10
2023-02-05T09:27:45.535Z,12.60
2023-02-05T09:30:13.644Z,14.67
2023-02-05T09:32:41.272Z,10.43
2023-02-05T09:35:08.820Z,10.67
2023-02-05T09:37:36.408Z,10.13
2023-02-05T09:40:21.240Z,7.10
2023-02-05T09:43:34.769Z,10.93
2023-02-05T09:47:08.004Z,11.97
2023-02-05T09:49:44.965Z,8.70
2023-02-05T09:52:29.369Z,8.30
2023-02-05T09:55:05.077Z,9.20
2023-02-05T09:57:41.560Z,9.23
2023-02-05T10:00:27.667Z,8.03
2023-02-05T10:03:06.995Z,8.97
2023-02-05T10:06:17.550Z,11.17
2023-02-05T10:08:45.376Z,13.07
2023-02-05T10:12:00.375Z,11.73
2023-02-05T10:14:46.498Z,11.53
2023-02-05T10:17:46.753Z,12.70
2023-02-05T10:20:31.853Z,16.23
2023-02-05T10:23:25.262Z,16.07
2023-02-05T10:26:14.495Z,15.57
2023-02-05T10:29:22.174Z,15.10
2023-02-05T10:32:25.669Z,12.25
2023-02-05T10:35:12.997Z,14.23
2023-02-05T10:37:58.250Z,11.17
2023-02-05T10:40:32.776Z,10.23
2023-02-05T10:43:53.561Z,9.00
2023-02-05T10:46:21.447Z,12.95
2023-02-05T10:49:38.429Z,15.15
2023-02-05T10:52:11.884Z,15.32
2023-02-05T10:54:41.476Z,11.77
2023-02-05T10:57:19.708Z,9.95
2023-02-05T11:00:14.693Z,7.28
2023-02-05T11:02:50.832Z,6.05
2023-02-05T11:05:37.343Z,7.55
2023-02-05T11:08:25.696Z,6.13
2023-02-05T11:10:53.995Z,5.60
2023-02-05T11:13:22.875Z,5.50
2023-02-05T11:16:21.802Z,6.80
2023-02-05T11:19:00.577Z,8.35
2023-02-05T11:21:47.731Z,9.23
2023-02-05T11:24:28.851Z,10.65
2023-02-05T11:27:32.820Z,7.80
2023-02-05T11:30:58.780Z,10.35
2023-02-05T11:33:23.271Z,10.18
2023-02-05T11:35:53.764Z,8.55
2023-02-05T11:38:48.093Z,8.80
2023-02-05T11:41:30.980Z,7.68
2023-02-05T11:44:01.974Z,9.38
2023-02-05T11:46:44.558Z,8.90
2023-02-05T11:49:23.040Z,11.55
2023-02-05T11:51:56.520Z,10.82
2023-02-05T11:54:34.554Z,9.68
2023-02-05T11:57:20.196Z,10.68
2023-02-05T12:00:08.540Z,12.03
2023-02-05T12:02:39.417Z,12.00
2023-02-05T12:05:26.877Z,16.48
2023-02-05T12:08:11.173Z,10.35
2023-02-05T12:11:30.557Z,11.27
2023-02-05T12:14:20.687Z,10.70
2023-02-05T12:17:39.960Z,12.20
2023-02-05T12:20:38.922Z,13.68
2023-02-05T12:23:33.531Z,11.95
2023-02-05T12:26:37.249Z,11.97
2023-02-05T12:29:45.662Z,11.48
2023-02-05T12:32:31.752Z,15.77
2023-02-05T12:35:33.224Z,12.07
2023-02-05T12:38:39.427Z,12.20
2023-02-05T12:41:37.676Z,11.83
2023-02-05T12:44:57.628Z,9.67
2023-02-05T12:47:53.188Z,9.70
2023-02-05T12:50:35.679Z,10.87
2023-02-05T12:53:46.839Z,13.43
2023-02-05T12:56:48.092Z,13.43
2023-02-05T12:59:30.992Z,12.27
2023-02-05T13:02:15.247Z,10.77
2023-02-05T13:05:01.128Z,10.53
2023-02-05T13:07:45.589Z,9.03
2023-02-05T13:10:28.424Z,6.80
2023-02-05T13:13:05.628Z,7.27
2023-02-05T13:15:49.356Z,9.63
2023-02-05T13:18:27.781Z,10.30
2023-02-05T13:21:49.168Z,9.95
2023-02-05T13:25:00.781Z,10.90
2023-02-05T13:27:59.201Z,10.82
2023-02-05T13:30:37.115Z,11.48
2023-02-05T13:33:08.078Z,10.00
2023-02-05T13:35:50.414Z,12.13
2023-02-05T13:38:41.192Z,10.65
2023-02-05T13:41:27.100Z,11.65
2023-02-05T13:44:06.520Z,14.13
2023-02-05T13:46:40.204Z,13.98
2023-02-05T13:49:37.238Z,9.63
2023-02-05T13:52:27.414Z,9.10
2023-02-05T13:55:13.744Z,9.98
2023-02-05T13:58:22.372Z,8.40
2023-02-05T14:00:58.443Z,8.75
2023-02-05T14:03:35.230Z,12.30
2023-02-05T14:06:39.524Z,12.88
2023-02-05T14:09:33.997Z,10.70
2023-02-05T14:12:06.529Z,9.02
2023-02-05T14:14:37.484Z,8.00
2023-02-05T14:17:27.847Z,7.78
2023-02-05T14:20:01.249Z,8.68
2023-02-05T14:22:44.399Z,8.68
2023-02-05T14:25:38.203Z,8.18
2023-02-05T14:28:20.604Z,7.43
2023-02-05T14:30:59.134Z,8.25
2023-02-05T14:33:42.371Z,7.80
2023-02-05T14:36:19.927Z,8.52
2023-02-05T14:38:57.159Z,8.35
2023-02-05T14:41:42.031Z,8.13
2023-02-05T14:44:12.053Z,9.57
2023-02-05T14:46:52.676Z,9.73
2023-02-05T14:49:39.585Z,9.25
2023-02-05T14:52:27.411Z,9.85
2023-02-05T14:55:18.553Z,12.95
2023-02-05T14:58:24.347Z,14.98
2023-02-05T15:00:53.193Z,13.77
2023-02-05T15:03:38.567Z,10.55
2023-02-05T15:06:15.388Z,9.63
2023-02-05T15:08:52.364Z,9.77
2023-02-05T15:11:50.809Z,9.38
2023-02-05T15:14:35.381Z,9.15
2023-02-05T15:17:05.802Z,7.78
2023-02-05T15:19:54.487Z,9.10
2023-02-05T15:22:44.322Z,10.45
2023-02-05T15:25:26.243Z,12.40
2023-02-05T15:28:04.359Z,14.20
2023-02-05T15:31:22.464Z,12.35
2023-02-05T15:33:59.885Z,21.30
2023-02-05T15:36:43.223Z,14.13
2023-02-05T15:39:35.620Z,12.73
2023-02-05T15:42:06.842Z,13.27
2023-02-05T15:44:36.067Z,12.15
2023-02-05T15:47:22.098Z,12.30
2023-02-05T15:50:00.909Z,15.30
2023-02-05T15:52:32.768Z,16.40
2023-02-05T15:55:16.997Z,18.27
2023-02-05T15:57:45.536Z,16.17
2023-02-05T16:00:29.487Z,15.97
2023-02-05T16:03:02.653Z,16.30
2023-02-05T16:05:31.972Z,16.57
2023-02-05T16:08:02.045Z,16.90
2023-02-05T16:10:35.046Z,15.50
2023-02-05T16:13:23.618Z,13.83
2023-02-05T16:16:15.344Z,15.50
2023-02-05T16:18:57.709Z,13.63
2023-02-05T16:21:45.740Z,13.20
2023-02-05T16:24:46.534Z,13.77
2023-02-05T16:27:43.345Z,16.20
2023-02-05T16:30:27.822Z,14.70
2023-02-05T16:32:58.738Z,17.40
2023-02-05T16:35:39.505Z,19.00
2023-02-05T16:38:15.410Z,18.47
2023-02-05T16:40:48.826Z,26.97
2023-02-05T16:43:37.384Z,28.80
2023-02-05T16:46:07.809Z,30.33
2023-02-05T16:48:41.822Z,25.53
2023-02-05T16:51:27.336Z,21.37
2023-02-05T16:53:54.634Z,23.27
2023-02-05T16:56:27.201Z,22.73
2023-02-05T16:59:00.671Z,21.60
2023-02-05T17:01:44.934Z,22.47
2023-02-05T17:04:34.935Z,21.10
2023-02-05T17:07:07.141Z,26.47
2023-02-05T17:09:39.253Z,26.77
2023-02-05T17:12:38.506Z,27.17
2023-02-05T17:15:37.076Z,25.67
2023-02-05T17:18:30.180Z,24.30
2023-02-05T17:21:22.837Z,24.55
2023-02-05T17:23:52.762Z,23.00
2023-02-05T17:26:21.147Z,25.17
2023-02-05T17:29:02.953Z,26.77
2023-02-05T17:31:35.473Z,21.77
2023-02-05T17:34:03.824Z,21.07
2023-02-05T17:36:31.125Z,18.30
2023-02-05T17:38:58.945Z,18.57
2023-02-05T17:41:56.017Z,15.83
2023-02-05T17:44:23.627Z,16.07
2023-02-05T17:46:51.070Z,15.73
2023-02-05T17:49:18.661Z,15.20
2023-02-05T17:51:46.268Z,16.03
2023-02-05T17:54:18.333Z,14.43
2023-02-05T17:56:48.346Z,14.27
2023-02-05T17:59:22.462Z,14.17
2023-02-05T18:01:51.881Z,13.00
2023-02-05T18:04:19.901Z,20.57
2023-02-05T18:06:49.899Z,18.93
2023-02-05T18:09:18.853Z,18.50
2023-02-05T18:11:46.167Z,17.40
2023-02-05T18:14:13.934Z,17.40
2023-02-05T18:16:41.353Z,17.37
2023-02-05T18:19:09.210Z,15.73
2023-02-05T18:21:36.730Z,17.13
2023-02-05T18:24:04.635Z,16.23
2023-02-05T18:26:32.389Z,13.50
2023-02-05T18:29:00.025Z,14.43
2023-02-05T18:31:27.496Z,14.23
2023-02-05T18:33:55.236Z,16.43
2023-02-05T18:36:23.152Z,16.13
2023-02-05T18:38:50.799Z,14.70
2023-02-05T18:41:25.947Z,14.27
2023-02-05T18:43:55.772Z,15.00
2023-02-05T18:46:24.331Z,17.40
2023-02-05T18:48:52.817Z,16.50
2023-02-05T18:51:23.214Z,14.07
2023-02-05T18:53:51.012Z,15.47
2023-02-05T18:56:26.216Z,19.93
2023-02-05T18:59:02.532Z,22.07
2023-02-05T19:01:31.912Z,24.63
2023-02-05T19:04:10.243Z,24.37
2023-02-05T19:06:41.735Z,21.07
2023-02-05T19:09:10.466Z,21.23
2023-02-05T19:11:41.513Z,19.23
2023-02-05T19:14:13.222Z,18.30
2023-02-05T19:16:42.161Z,19.60
2023-02-05T19:19:14.435Z,20.70
2023-02-05T19:21:44.080Z,21.70
2023-02-05T19:24:14.316Z,22.53
2023-02-05T19:26:45.428Z,20.10
2023-02-05T19:29:17.004Z,20.20
2023-02-05T19:31:46.261Z,20.47
2023-02-05T19:34:15.558Z,20.83
2023-02-05T19:36:43.871Z,17.80
2023-02-05T19:39:14.538Z,17.43
2023-02-05T19:41:45.728Z,16.60
2023-02-05T19:44:13.675Z,17.03
2023-02-05T19:46:46.778Z,16.50
2023-02-05T19:49:19.143Z,15.53
2023-02-05T19:51:49.552Z,15.83
2023-02-05T19:54:21.183Z,16.60
2023-02-05T19:56:49.429Z,15.17
2023-02-05T19:59:17.435Z,16.90
2023-02-05T20:01:46.050Z,18.90
2023-02-05T20:04:18.239Z,20.77
2023-02-05T20:06:47.360Z,21.23
2023-02-05T20:09:17.439Z,18.83
2023-02-05T20:11:49.219Z,18.57
2023-02-05T20:14:18.404Z,18.93
2023-02-05T20:16:46.344Z,19.23
2023-02-05T20:19:16.918Z,18.73
2023-02-05T20:21:44.893Z,18.03
2023-02-05T20:24:13.667Z,18.03
2023-02-05T20:26:41.277Z,20.17
2023-02-05T20:29:29.164Z,16.50
2023-02-05T20:31:58.396Z,21.53
2023-02-05T20:34:30.927Z,18.87
2023-02-05T20:37:04.310Z,20.47
2023-02-05T20:39:35.301Z,20.00
2023-02-05T20:42:03.647Z,22.47
2023-02-05T20:44:36.276Z,25.60
2023-02-05T20:47:11.052Z,22.40
2023-02-05T20:49:41.509Z,23.00
2023-02-05T20:52:10.533Z,20.87
2023-02-05T20:54:38.277Z,19.60
2023-02-05T20:57:05.749Z,17.43
2023-02-05T20:59:34.511Z,17.77
2023-02-05T21:02:02.899Z,19.07
2023-02-05T21:04:31.034Z,17.30
2023-02-05T21:06:58.786Z,17.40
2023-02-05T21:09:26.582Z,16.67
2023-02-05T21:11:55.684Z,16.30
2023-02-05T21:14:24.190Z,16.47
2023-02-05T21:16:52.072Z,19.00
2023-02-05T21:19:19.871Z,17.63
2023-02-05T21:21:47.266Z,16.57
2023-02-05T21:24:16.434Z,19.27
2023-02-05T21:26:49.439Z,23.10
2023-02-05T21:29:20.852Z,27.93
2023-02-05T21:31:54.264Z,35.87
2023-02-05T21:34:26.434Z,34.07
2023-02-05T21:36:55.230Z,33.60
2023-02-05T21:39:24.188Z,33.40
2023-02-05T21:41:53.417Z,30.93
2023-02-05T21:44:21.360Z,33.27
2023-02-05T21:46:48.728Z,33.03
2023-02-05T21:49:16.381Z,40.43
2023-02-05T21:51:43.696Z,49.07
2023-02-05T21:54:12.241Z,51.00
2023-02-05T21:56:42.787Z,48.10
2023-02-05T21:59:12.867Z,40.97
2023-02-05T22:01:41.799Z,41.60
2023-02-05T22:04:15.094Z,40.73
2023-02-05T22:06:43.117Z,38.40
2023-02-05T22:09:14.322Z,39.60
2023-02-05T22:11:42.474Z,32.23
2023-02-05T22:14:11.201Z,34.37
2023-02-05T22:16:39.258Z,31.97
2023-02-05T22:19:07.694Z,32.03
2023-02-05T22:21:38.915Z,27.57
2023-02-05T22:24:08.498Z,26.77
2023-02-05T22:26:39.146Z,23.43
2023-02-05T22:29:11.299Z,22.33
2023-02-05T22:31:38.674Z,22.03
2023-02-05T22:34:06.277Z,21.10
2023-02-05T22:36:35.410Z,19.30
2023-02-05T22:39:05.782Z,21.30
2023-02-05T22:41:38.950Z,21.00
2023-02-05T22:44:08.925Z,21.77
2023-02-05T22:46:41.945Z,22.13
2023-02-05T22:49:15.405Z,29.67
2023-02-05T22:51:43.908Z,52.10
2023-02-05T22:54:13.822Z,62.40
2023-02-05T22:56:41.270Z,110.60
2023-02-05T22:59:09.039Z,91.17
2023-02-05T23:01:39.265Z,72.47
2023-02-05T23:04:09.458Z,76.63
2023-02-05T23:06:43.151Z,71.73
2023-02-05T23:09:16.006Z,76.07
2023-02-05T23:11:44.376Z,85.30
2023-02-05T23:14:14.996Z,77.97
2023-02-05T23:16:44.806Z,85.97
2023-02-05T23:19:18.511Z,89.07
2023-02-05T23:21:47.222Z,74.63
2023-02-05T23:24:15.877Z,77.10
2023-02-05T23:26:47.113Z,61.00
2023-02-05T23:29:16.748Z,47.13
2023-02-05T23:31:44.642Z,49.17
2023-02-05T23:34:13.431Z,53.87
2023-02-05T23:36:41.219Z,55.67
2023-02-05T23:39:09.249Z,62.83
2023-02-05T23:41:36.898Z,55.23
2023-02-05T23:44:18.307Z,46.63
2023-02-05T23:46:48.137Z,41.47
2023-02-05T23:49:17.408Z,36.27
2023-02-05T23:51:44.688Z,37.17
2023-02-05T23:54:12.722Z,34.60
2023-02-05T23:56:41.053Z,30.90
2023-02-05T23:59:11.010Z,33.20
